sensor_id;sensor_type;location;lat;lon;timestamp;P1;durP1;ratioP1;P2;durP2;ratioP2
45338;SDS011;31071;51.478;5.710;2023-05-07T00:00:32;33.80;;;20.40;;
45338;SDS011;31071;51.478;5.710;2023-05-07T00:02:59;26.88;;;19.73;;
45338;SDS011;31071;51.478;5.710;2023-05-07T00:05:24;26.35;;;20.73;;
45338;SDS011;31071;51.478;5.710;2023-05-07T00:07:50;28.90;;;20.48;;
45338;SDS011;31071;51.478;5.710;2023-05-07T00:10:17;29.33;;;20.10;;
45338;SDS011;31071;51.478;5.710;2023-05-07T00:12:43;27.13;;;19.95;;
45338;SDS011;31071;51.478;5.710;2023-05-07T00:15:09;25.42;;;20.05;;
45338;SDS011;31071;51.478;5.710;2023-05-07T00:17:35;24.75;;;19.45;;
45338;SDS011;31071;51.478;5.710;2023-05-07T00:20:00;27.75;;;20.02;;
45338;SDS011;31071;51.478;5.710;2023-05-07T00:22:27;25.15;;;19.67;;
45338;SDS011;31071;51.478;5.710;2023-05-07T00:24:55;27.35;;;19.60;;
45338;SDS011;31071;51.478;5.710;2023-05-07T00:27:20;27.90;;;19.92;;
45338;SDS011;31071;51.478;5.710;2023-05-07T00:29:46;25.25;;;19.88;;
45338;SDS011;31071;51.478;5.710;2023-05-07T00:32:12;26.92;;;20.35;;
45338;SDS011;31071;51.478;5.710;2023-05-07T00:34:37;26.88;;;20.85;;
45338;SDS011;31071;51.478;5.710;2023-05-07T00:37:04;26.75;;;20.10;;
45338;SDS011;31071;51.478;5.710;2023-05-07T00:39:30;27.10;;;20.85;;
45338;SDS011;31071;51.478;5.710;2023-05-07T00:41:55;27.40;;;20.92;;
45338;SDS011;31071;51.478;5.710;2023-05-07T00:44:21;25.73;;;20.60;;
45338;SDS011;31071;51.478;5.710;2023-05-07T00:46:46;25.05;;;20.08;;
45338;SDS011;31071;51.478;5.710;2023-05-07T00:49:14;22.75;;;19.08;;
45338;SDS011;31071;51.478;5.710;2023-05-07T00:51:40;25.52;;;19.08;;
45338;SDS011;31071;51.478;5.710;2023-05-07T00:54:06;22.98;;;18.73;;
45338;SDS011;31071;51.478;5.710;2023-05-07T00:56:32;26.17;;;19.27;;
45338;SDS011;31071;51.478;5.710;2023-05-07T00:58:58;23.45;;;19.35;;
45338;SDS011;31071;51.478;5.710;2023-05-07T01:01:25;24.55;;;19.60;;
45338;SDS011;31071;51.478;5.710;2023-05-07T01:03:51;26.60;;;20.17;;
45338;SDS011;31071;51.478;5.710;2023-05-07T01:06:16;26.65;;;21.23;;
45338;SDS011;31071;51.478;5.710;2023-05-07T01:08:43;24.23;;;20.95;;
45338;SDS011;31071;51.478;5.710;2023-05-07T01:11:09;28.15;;;21.83;;
45338;SDS011;31071;51.478;5.710;2023-05-07T01:13:36;31.40;;;22.77;;
45338;SDS011;31071;51.478;5.710;2023-05-07T01:16:03;33.45;;;22.58;;
45338;SDS011;31071;51.478;5.710;2023-05-07T01:18:29;26.77;;;21.77;;
45338;SDS011;31071;51.478;5.710;2023-05-07T01:20:58;24.92;;;22.27;;
45338;SDS011;31071;51.478;5.710;2023-05-07T01:23:24;31.45;;;22.00;;
45338;SDS011;31071;51.478;5.710;2023-05-07T01:25:54;29.60;;;22.70;;
45338;SDS011;31071;51.478;5.710;2023-05-07T01:28:20;28.80;;;23.23;;
45338;SDS011;31071;51.478;5.710;2023-05-07T01:30:47;28.25;;;22.17;;
45338;SDS011;31071;51.478;5.710;2023-05-07T01:33:17;27.75;;;22.13;;
45338;SDS011;31071;51.478;5.710;2023-05-07T01:35:47;31.42;;;23.60;;
45338;SDS011;31071;51.478;5.710;2023-05-07T01:38:15;27.88;;;22.60;;
45338;SDS011;31071;51.478;5.710;2023-05-07T01:40:42;28.75;;;23.05;;
45338;SDS011;31071;51.478;5.710;2023-05-07T01:43:08;30.40;;;22.60;;
45338;SDS011;31071;51.478;5.710;2023-05-07T01:45:34;29.27;;;22.17;;
45338;SDS011;31071;51.478;5.710;2023-05-07T01:48:01;31.75;;;23.00;;
45338;SDS011;31071;51.478;5.710;2023-05-07T01:50:28;31.02;;;23.00;;
45338;SDS011;31071;51.478;5.710;2023-05-07T01:52:54;29.52;;;24.17;;
45338;SDS011;31071;51.478;5.710;2023-05-07T01:55:20;31.00;;;23.58;;
45338;SDS011;31071;51.478;5.710;2023-05-07T01:57:46;32.75;;;23.38;;
45338;SDS011;31071;51.478;5.710;2023-05-07T02:00:11;27.15;;;23.73;;
45338;SDS011;31071;51.478;5.710;2023-05-07T02:02:37;28.30;;;23.55;;
45338;SDS011;31071;51.478;5.710;2023-05-07T02:05:03;27.38;;;22.23;;
45338;SDS011;31071;51.478;5.710;2023-05-07T02:07:29;26.38;;;23.20;;
45338;SDS011;31071;51.478;5.710;2023-05-07T02:09:55;29.20;;;24.33;;
45338;SDS011;31071;51.478;5.710;2023-05-07T02:12:21;32.63;;;25.17;;
45338;SDS011;31071;51.478;5.710;2023-05-07T02:14:47;28.05;;;24.90;;
45338;SDS011;31071;51.478;5.710;2023-05-07T02:17:12;28.38;;;24.58;;
45338;SDS011;31071;51.478;5.710;2023-05-07T02:19:38;27.08;;;24.08;;
45338;SDS011;31071;51.478;5.710;2023-05-07T02:22:03;27.33;;;24.27;;
45338;SDS011;31071;51.478;5.710;2023-05-07T02:24:29;41.75;;;25.50;;
45338;SDS011;31071;51.478;5.710;2023-05-07T02:26:55;34.95;;;25.60;;
45338;SDS011;31071;51.478;5.710;2023-05-07T02:29:20;30.55;;;25.20;;
45338;SDS011;31071;51.478;5.710;2023-05-07T02:31:46;30.60;;;25.65;;
45338;SDS011;31071;51.478;5.710;2023-05-07T02:34:15;32.80;;;26.85;;
45338;SDS011;31071;51.478;5.710;2023-05-07T02:36:41;33.85;;;27.13;;
45338;SDS011;31071;51.478;5.710;2023-05-07T02:39:07;37.17;;;28.15;;
45338;SDS011;31071;51.478;5.710;2023-05-07T02:41:32;34.30;;;27.80;;
45338;SDS011;31071;51.478;5.710;2023-05-07T02:43:58;36.63;;;29.60;;
45338;SDS011;31071;51.478;5.710;2023-05-07T02:46:23;35.92;;;29.00;;
45338;SDS011;31071;51.478;5.710;2023-05-07T02:48:49;37.88;;;28.95;;
45338;SDS011;31071;51.478;5.710;2023-05-07T02:51:14;35.08;;;28.67;;
45338;SDS011;31071;51.478;5.710;2023-05-07T02:53:41;37.05;;;29.77;;
45338;SDS011;31071;51.478;5.710;2023-05-07T02:56:06;33.95;;;29.38;;
45338;SDS011;31071;51.478;5.710;2023-05-07T02:58:32;34.72;;;29.77;;
45338;SDS011;31071;51.478;5.710;2023-05-07T03:00:57;40.50;;;29.63;;
45338;SDS011;31071;51.478;5.710;2023-05-07T03:03:23;33.05;;;26.02;;
45338;SDS011;31071;51.478;5.710;2023-05-07T03:05:49;31.65;;;26.98;;
45338;SDS011;31071;51.478;5.710;2023-05-07T03:08:14;33.08;;;27.30;;
45338;SDS011;31071;51.478;5.710;2023-05-07T03:10:40;36.13;;;29.95;;
45338;SDS011;31071;51.478;5.710;2023-05-07T03:13:06;37.88;;;29.50;;
45338;SDS011;31071;51.478;5.710;2023-05-07T03:15:31;39.70;;;31.27;;
45338;SDS011;31071;51.478;5.710;2023-05-07T03:17:57;37.38;;;31.52;;
45338;SDS011;31071;51.478;5.710;2023-05-07T03:20:22;39.75;;;31.13;;
45338;SDS011;31071;51.478;5.710;2023-05-07T03:22:48;40.10;;;33.30;;
45338;SDS011;31071;51.478;5.710;2023-05-07T03:25:13;40.70;;;33.05;;
45338;SDS011;31071;51.478;5.710;2023-05-07T03:27:39;40.53;;;30.25;;
45338;SDS011;31071;51.478;5.710;2023-05-07T03:30:07;37.60;;;30.52;;
45338;SDS011;31071;51.478;5.710;2023-05-07T03:32:33;40.78;;;32.55;;
45338;SDS011;31071;51.478;5.710;2023-05-07T03:35:00;41.22;;;32.08;;
45338;SDS011;31071;51.478;5.710;2023-05-07T03:37:25;46.40;;;34.97;;
45338;SDS011;31071;51.478;5.710;2023-05-07T03:39:51;45.97;;;35.08;;
45338;SDS011;31071;51.478;5.710;2023-05-07T03:42:16;45.20;;;34.60;;
45338;SDS011;31071;51.478;5.710;2023-05-07T03:44:42;41.83;;;34.67;;
45338;SDS011;31071;51.478;5.710;2023-05-07T03:47:08;44.45;;;33.58;;
45338;SDS011;31071;51.478;5.710;2023-05-07T03:49:35;45.00;;;35.20;;
45338;SDS011;31071;51.478;5.710;2023-05-07T03:52:01;48.50;;;35.90;;
45338;SDS011;31071;51.478;5.710;2023-05-07T03:54:26;46.60;;;34.45;;
45338;SDS011;31071;51.478;5.710;2023-05-07T03:56:52;45.90;;;33.67;;
45338;SDS011;31071;51.478;5.710;2023-05-07T03:59:17;40.40;;;33.35;;
45338;SDS011;31071;51.478;5.710;2023-05-07T04:01:43;42.22;;;33.30;;
45338;SDS011;31071;51.478;5.710;2023-05-07T04:04:08;39.83;;;32.90;;
45338;SDS011;31071;51.478;5.710;2023-05-07T04:06:34;44.33;;;33.97;;
45338;SDS011;31071;51.478;5.710;2023-05-07T04:08:59;44.28;;;35.05;;
45338;SDS011;31071;51.478;5.710;2023-05-07T04:11:25;46.30;;;34.55;;
45338;SDS011;31071;51.478;5.710;2023-05-07T04:13:50;45.92;;;34.38;;
45338;SDS011;31071;51.478;5.710;2023-05-07T04:16:16;42.80;;;33.65;;
45338;SDS011;31071;51.478;5.710;2023-05-07T04:18:41;46.42;;;33.88;;
45338;SDS011;31071;51.478;5.710;2023-05-07T04:21:13;50.03;;;36.20;;
45338;SDS011;31071;51.478;5.710;2023-05-07T04:23:40;45.45;;;34.42;;
45338;SDS011;31071;51.478;5.710;2023-05-07T04:26:05;48.47;;;36.50;;
45338;SDS011;31071;51.478;5.710;2023-05-07T04:28:31;49.30;;;35.30;;
45338;SDS011;31071;51.478;5.710;2023-05-07T04:30:57;46.58;;;35.60;;
45338;SDS011;31071;51.478;5.710;2023-05-07T04:33:23;48.95;;;35.38;;
45338;SDS011;31071;51.478;5.710;2023-05-07T04:35:48;46.08;;;36.50;;
45338;SDS011;31071;51.478;5.710;2023-05-07T04:38:14;44.70;;;35.15;;
45338;SDS011;31071;51.478;5.710;2023-05-07T04:40:40;41.85;;;33.88;;
45338;SDS011;31071;51.478;5.710;2023-05-07T04:43:06;45.65;;;35.88;;
45338;SDS011;31071;51.478;5.710;2023-05-07T04:45:32;45.72;;;33.88;;
45338;SDS011;31071;51.478;5.710;2023-05-07T04:47:57;44.00;;;35.05;;
45338;SDS011;31071;51.478;5.710;2023-05-07T04:50:23;42.33;;;33.97;;
45338;SDS011;31071;51.478;5.710;2023-05-07T04:52:49;44.70;;;34.38;;
45338;SDS011;31071;51.478;5.710;2023-05-07T04:55:15;44.47;;;34.38;;
45338;SDS011;31071;51.478;5.710;2023-05-07T04:57:40;46.10;;;34.42;;
45338;SDS011;31071;51.478;5.710;2023-05-07T05:00:06;41.63;;;33.92;;
45338;SDS011;31071;51.478;5.710;2023-05-07T05:02:34;44.78;;;32.78;;
45338;SDS011;31071;51.478;5.710;2023-05-07T05:05:00;46.35;;;33.83;;
45338;SDS011;31071;51.478;5.710;2023-05-07T05:07:29;42.35;;;32.70;;
45338;SDS011;31071;51.478;5.710;2023-05-07T05:09:54;43.17;;;33.15;;
45338;SDS011;31071;51.478;5.710;2023-05-07T05:12:20;40.47;;;33.22;;
45338;SDS011;31071;51.478;5.710;2023-05-07T05:14:46;40.83;;;31.77;;
45338;SDS011;31071;51.478;5.710;2023-05-07T05:17:12;42.90;;;32.47;;
45338;SDS011;31071;51.478;5.710;2023-05-07T05:19:37;41.88;;;32.80;;
45338;SDS011;31071;51.478;5.710;2023-05-07T05:22:03;38.22;;;32.00;;
45338;SDS011;31071;51.478;5.710;2023-05-07T05:24:29;40.83;;;32.78;;
45338;SDS011;31071;51.478;5.710;2023-05-07T05:26:55;43.10;;;31.80;;
45338;SDS011;31071;51.478;5.710;2023-05-07T05:29:21;42.80;;;30.98;;
45338;SDS011;31071;51.478;5.710;2023-05-07T05:31:46;39.90;;;30.83;;
45338;SDS011;31071;51.478;5.710;2023-05-07T05:34:12;40.40;;;31.60;;
45338;SDS011;31071;51.478;5.710;2023-05-07T05:36:37;40.40;;;32.10;;
45338;SDS011;31071;51.478;5.710;2023-05-07T05:39:03;41.13;;;33.83;;
45338;SDS011;31071;51.478;5.710;2023-05-07T05:41:29;37.90;;;31.90;;
45338;SDS011;31071;51.478;5.710;2023-05-07T05:43:55;40.72;;;33.00;;
45338;SDS011;31071;51.478;5.710;2023-05-07T05:46:20;41.88;;;33.65;;
45338;SDS011;31071;51.478;5.710;2023-05-07T05:48:46;43.90;;;32.60;;
45338;SDS011;31071;51.478;5.710;2023-05-07T05:51:11;38.72;;;32.80;;
45338;SDS011;31071;51.478;5.710;2023-05-07T05:53:37;36.78;;;31.70;;
45338;SDS011;31071;51.478;5.710;2023-05-07T05:56:02;36.35;;;32.38;;
45338;SDS011;31071;51.478;5.710;2023-05-07T05:58:29;35.50;;;30.25;;
45338;SDS011;31071;51.478;5.710;2023-05-07T06:00:54;36.05;;;30.88;;
45338;SDS011;31071;51.478;5.710;2023-05-07T06:03:20;38.58;;;31.08;;
45338;SDS011;31071;51.478;5.710;2023-05-07T06:05:45;39.70;;;31.15;;
45338;SDS011;31071;51.478;5.710;2023-05-07T06:08:11;43.25;;;31.63;;
45338;SDS011;31071;51.478;5.710;2023-05-07T06:10:37;36.67;;;30.75;;
45338;SDS011;31071;51.478;5.710;2023-05-07T06:13:02;38.65;;;28.77;;
45338;SDS011;31071;51.478;5.710;2023-05-07T06:15:28;36.42;;;28.67;;
45338;SDS011;31071;51.478;5.710;2023-05-07T06:17:53;31.77;;;28.27;;
45338;SDS011;31071;51.478;5.710;2023-05-07T06:20:20;34.95;;;28.42;;
45338;SDS011;31071;51.478;5.710;2023-05-07T06:22:46;32.58;;;27.60;;
45338;SDS011;31071;51.478;5.710;2023-05-07T06:25:11;28.70;;;25.58;;
45338;SDS011;31071;51.478;5.710;2023-05-07T06:27:37;31.85;;;26.52;;
45338;SDS011;31071;51.478;5.710;2023-05-07T06:30:04;27.70;;;24.75;;
45338;SDS011;31071;51.478;5.710;2023-05-07T06:32:32;30.02;;;25.33;;
45338;SDS011;31071;51.478;5.710;2023-05-07T06:34:57;30.85;;;25.88;;
45338;SDS011;31071;51.478;5.710;2023-05-07T06:37:23;31.70;;;24.55;;
45338;SDS011;31071;51.478;5.710;2023-05-07T06:39:48;27.63;;;24.55;;
45338;SDS011;31071;51.478;5.710;2023-05-07T06:42:14;29.25;;;24.83;;
45338;SDS011;31071;51.478;5.710;2023-05-07T06:44:40;28.40;;;24.88;;
45338;SDS011;31071;51.478;5.710;2023-05-07T06:47:05;28.00;;;23.45;;
45338;SDS011;31071;51.478;5.710;2023-05-07T06:49:31;30.50;;;24.27;;
45338;SDS011;31071;51.478;5.710;2023-05-07T06:51:57;26.60;;;23.25;;
45338;SDS011;31071;51.478;5.710;2023-05-07T06:54:23;34.28;;;25.25;;
45338;SDS011;31071;51.478;5.710;2023-05-07T06:56:48;27.75;;;23.30;;
45338;SDS011;31071;51.478;5.710;2023-05-07T06:59:14;26.65;;;22.88;;
45338;SDS011;31071;51.478;5.710;2023-05-07T07:01:39;26.70;;;23.83;;
45338;SDS011;31071;51.478;5.710;2023-05-07T07:04:05;26.73;;;23.80;;
45338;SDS011;31071;51.478;5.710;2023-05-07T07:06:31;26.52;;;23.25;;
45338;SDS011;31071;51.478;5.710;2023-05-07T07:08:57;31.00;;;23.58;;
45338;SDS011;31071;51.478;5.710;2023-05-07T07:11:23;31.58;;;23.90;;
45338;SDS011;31071;51.478;5.710;2023-05-07T07:13:49;26.35;;;23.48;;
45338;SDS011;31071;51.478;5.710;2023-05-07T07:16:15;29.55;;;22.70;;
45338;SDS011;31071;51.478;5.710;2023-05-07T07:18:41;25.85;;;22.10;;
45338;SDS011;31071;51.478;5.710;2023-05-07T07:21:07;23.65;;;20.73;;
45338;SDS011;31071;51.478;5.710;2023-05-07T07:23:32;21.42;;;19.08;;
45338;SDS011;31071;51.478;5.710;2023-05-07T07:25:58;22.42;;;17.80;;
45338;SDS011;31071;51.478;5.710;2023-05-07T07:28:23;24.02;;;18.55;;
45338;SDS011;31071;51.478;5.710;2023-05-07T07:30:49;20.38;;;18.17;;
45338;SDS011;31071;51.478;5.710;2023-05-07T07:33:15;19.65;;;16.98;;
45338;SDS011;31071;51.478;5.710;2023-05-07T07:35:40;20.73;;;17.70;;
45338;SDS011;31071;51.478;5.710;2023-05-07T07:38:06;20.23;;;16.83;;
45338;SDS011;31071;51.478;5.710;2023-05-07T07:40:33;21.35;;;17.13;;
45338;SDS011;31071;51.478;5.710;2023-05-07T07:43:00;19.88;;;17.77;;
45338;SDS011;31071;51.478;5.710;2023-05-07T07:45:26;21.38;;;18.55;;
45338;SDS011;31071;51.478;5.710;2023-05-07T07:47:52;20.20;;;18.05;;
45338;SDS011;31071;51.478;5.710;2023-05-07T07:50:17;22.35;;;16.65;;
45338;SDS011;31071;51.478;5.710;2023-05-07T07:52:43;21.15;;;18.45;;
45338;SDS011;31071;51.478;5.710;2023-05-07T07:55:09;19.98;;;16.58;;
45338;SDS011;31071;51.478;5.710;2023-05-07T07:57:35;19.05;;;17.05;;
45338;SDS011;31071;51.478;5.710;2023-05-07T08:00:00;18.58;;;16.63;;
45338;SDS011;31071;51.478;5.710;2023-05-07T08:02:26;20.38;;;17.95;;
45338;SDS011;31071;51.478;5.710;2023-05-07T08:04:51;24.27;;;18.38;;
45338;SDS011;31071;51.478;5.710;2023-05-07T08:07:17;22.00;;;17.90;;
45338;SDS011;31071;51.478;5.710;2023-05-07T08:09:45;25.88;;;16.83;;
45338;SDS011;31071;51.478;5.710;2023-05-07T08:12:11;23.30;;;19.17;;
45338;SDS011;31071;51.478;5.710;2023-05-07T08:14:36;21.88;;;17.42;;
45338;SDS011;31071;51.478;5.710;2023-05-07T08:17:02;18.92;;;16.77;;
45338;SDS011;31071;51.478;5.710;2023-05-07T08:19:27;21.25;;;16.80;;
45338;SDS011;31071;51.478;5.710;2023-05-07T08:21:53;20.70;;;17.67;;
45338;SDS011;31071;51.478;5.710;2023-05-07T08:24:19;22.77;;;16.95;;
45338;SDS011;31071;51.478;5.710;2023-05-07T08:26:44;18.25;;;16.35;;
45338;SDS011;31071;51.478;5.710;2023-05-07T08:29:10;22.05;;;18.05;;
45338;SDS011;31071;51.478;5.710;2023-05-07T08:31:36;23.25;;;18.35;;
45338;SDS011;31071;51.478;5.710;2023-05-07T08:34:01;20.90;;;17.83;;
45338;SDS011;31071;51.478;5.710;2023-05-07T08:36:28;23.85;;;18.80;;
45338;SDS011;31071;51.478;5.710;2023-05-07T08:38:53;19.27;;;16.40;;
45338;SDS011;31071;51.478;5.710;2023-05-07T08:41:19;19.92;;;17.55;;
45338;SDS011;31071;51.478;5.710;2023-05-07T08:43:46;20.83;;;18.27;;
45338;SDS011;31071;51.478;5.710;2023-05-07T08:46:17;19.55;;;17.17;;
45338;SDS011;31071;51.478;5.710;2023-05-07T08:48:50;20.95;;;17.70;;
45338;SDS011;31071;51.478;5.710;2023-05-07T08:51:18;22.92;;;17.70;;
45338;SDS011;31071;51.478;5.710;2023-05-07T08:53:46;20.92;;;17.27;;
45338;SDS011;31071;51.478;5.710;2023-05-07T08:56:15;19.52;;;17.30;;
45338;SDS011;31071;51.478;5.710;2023-05-07T08:58:44;21.02;;;16.27;;
45338;SDS011;31071;51.478;5.710;2023-05-07T09:01:12;16.80;;;15.00;;
45338;SDS011;31071;51.478;5.710;2023-05-07T09:03:39;17.13;;;15.02;;
45338;SDS011;31071;51.478;5.710;2023-05-07T09:06:05;20.63;;;14.98;;
45338;SDS011;31071;51.478;5.710;2023-05-07T09:08:32;17.25;;;14.30;;
45338;SDS011;31071;51.478;5.710;2023-05-07T09:10:59;23.35;;;16.15;;
45338;SDS011;31071;51.478;5.710;2023-05-07T09:13:24;18.80;;;16.20;;
45338;SDS011;31071;51.478;5.710;2023-05-07T09:15:52;21.02;;;16.10;;
45338;SDS011;31071;51.478;5.710;2023-05-07T09:18:17;18.08;;;16.00;;
45338;SDS011;31071;51.478;5.710;2023-05-07T09:20:43;20.05;;;16.20;;
45338;SDS011;31071;51.478;5.710;2023-05-07T09:23:08;22.15;;;17.67;;
45338;SDS011;31071;51.478;5.710;2023-05-07T09:25:35;21.70;;;17.98;;
45338;SDS011;31071;51.478;5.710;2023-05-07T09:28:01;21.60;;;18.73;;
45338;SDS011;31071;51.478;5.710;2023-05-07T09:30:31;23.33;;;18.63;;
45338;SDS011;31071;51.478;5.710;2023-05-07T09:32:58;19.90;;;17.65;;
45338;SDS011;31071;51.478;5.710;2023-05-07T09:35:25;19.38;;;17.23;;
45338;SDS011;31071;51.478;5.710;2023-05-07T09:37:58;18.60;;;16.67;;
45338;SDS011;31071;51.478;5.710;2023-05-07T09:40:28;22.35;;;16.67;;
45338;SDS011;31071;51.478;5.710;2023-05-07T09:42:55;18.63;;;16.13;;
45338;SDS011;31071;51.478;5.710;2023-05-07T09:45:30;17.77;;;15.13;;
45338;SDS011;31071;51.478;5.710;2023-05-07T09:47:58;18.55;;;15.48;;
45338;SDS011;31071;51.478;5.710;2023-05-07T09:50:26;17.23;;;14.35;;
45338;SDS011;31071;51.478;5.710;2023-05-07T09:52:53;18.75;;;14.88;;
45338;SDS011;31071;51.478;5.710;2023-05-07T09:55:20;23.70;;;16.90;;
45338;SDS011;31071;51.478;5.710;2023-05-07T09:57:48;21.75;;;16.58;;
45338;SDS011;31071;51.478;5.710;2023-05-07T10:00:15;20.20;;;16.52;;
45338;SDS011;31071;51.478;5.710;2023-05-07T10:02:44;18.40;;;16.30;;
45338;SDS011;31071;51.478;5.710;2023-05-07T10:05:14;16.98;;;15.10;;
45338;SDS011;31071;51.478;5.710;2023-05-07T10:07:40;18.45;;;14.13;;
45338;SDS011;31071;51.478;5.710;2023-05-07T10:10:06;16.33;;;14.63;;
45338;SDS011;31071;51.478;5.710;2023-05-07T10:12:32;18.20;;;14.32;;
45338;SDS011;31071;51.478;5.710;2023-05-07T10:15:04;17.98;;;13.35;;
45338;SDS011;31071;51.478;5.710;2023-05-07T10:17:35;14.77;;;12.85;;
45338;SDS011;31071;51.478;5.710;2023-05-07T10:20:01;14.57;;;11.40;;
45338;SDS011;31071;51.478;5.710;2023-05-07T10:22:27;12.23;;;9.77;;
45338;SDS011;31071;51.478;5.710;2023-05-07T10:24:56;15.18;;;11.68;;
45338;SDS011;31071;51.478;5.710;2023-05-07T10:27:24;13.00;;;11.57;;
45338;SDS011;31071;51.478;5.710;2023-05-07T10:30:01;13.32;;;10.95;;
45338;SDS011;31071;51.478;5.710;2023-05-07T10:32:42;11.75;;;7.22;;
45338;SDS011;31071;51.478;5.710;2023-05-07T10:35:15;10.55;;;8.38;;
45338;SDS011;31071;51.478;5.710;2023-05-07T10:37:44;11.40;;;8.88;;
45338;SDS011;31071;51.478;5.710;2023-05-07T10:40:11;12.75;;;9.20;;
45338;SDS011;31071;51.478;5.710;2023-05-07T10:42:37;10.20;;;9.13;;
45338;SDS011;31071;51.478;5.710;2023-05-07T10:45:13;9.52;;;8.13;;
45338;SDS011;31071;51.478;5.710;2023-05-07T10:50:30;10.07;;;8.40;;
45338;SDS011;31071;51.478;5.710;2023-05-07T10:55:49;12.70;;;7.75;;
45338;SDS011;31071;51.478;5.710;2023-05-07T11:00:50;9.82;;;6.90;;
45338;SDS011;31071;51.478;5.710;2023-05-07T11:03:20;13.35;;;8.50;;
45338;SDS011;31071;51.478;5.710;2023-05-07T11:05:47;13.25;;;7.57;;
45338;SDS011;31071;51.478;5.710;2023-05-07T11:11:17;11.50;;;7.75;;
45338;SDS011;31071;51.478;5.710;2023-05-07T11:13:45;11.15;;;8.27;;
45338;SDS011;31071;51.478;5.710;2023-05-07T11:16:19;9.35;;;7.63;;
45338;SDS011;31071;51.478;5.710;2023-05-07T11:18:52;10.45;;;7.80;;
45338;SDS011;31071;51.478;5.710;2023-05-07T11:21:40;8.13;;;7.30;;
45338;SDS011;31071;51.478;5.710;2023-05-07T11:24:07;8.57;;;7.70;;
45338;SDS011;31071;51.478;5.710;2023-05-07T11:26:44;12.57;;;9.00;;
45338;SDS011;31071;51.478;5.710;2023-05-07T11:29:12;13.15;;;9.10;;
45338;SDS011;31071;51.478;5.710;2023-05-07T11:31:39;11.98;;;7.78;;
45338;SDS011;31071;51.478;5.710;2023-05-07T11:34:05;12.70;;;6.85;;
45338;SDS011;31071;51.478;5.710;2023-05-07T11:36:33;12.35;;;7.03;;
45338;SDS011;31071;51.478;5.710;2023-05-07T11:39:00;10.90;;;7.38;;
45338;SDS011;31071;51.478;5.710;2023-05-07T11:41:33;9.10;;;6.65;;
45338;SDS011;31071;51.478;5.710;2023-05-07T11:44:02;6.93;;;6.22;;
45338;SDS011;31071;51.478;5.710;2023-05-07T11:46:27;8.63;;;5.88;;
45338;SDS011;31071;51.478;5.710;2023-05-07T11:48:54;9.32;;;5.57;;
45338;SDS011;31071;51.478;5.710;2023-05-07T11:51:20;14.38;;;6.80;;
45338;SDS011;31071;51.478;5.710;2023-05-07T11:53:47;7.93;;;5.63;;
45338;SDS011;31071;51.478;5.710;2023-05-07T11:56:14;6.30;;;4.95;;
45338;SDS011;31071;51.478;5.710;2023-05-07T11:58:41;8.60;;;5.68;;
45338;SDS011;31071;51.478;5.710;2023-05-07T12:01:08;7.18;;;4.63;;
45338;SDS011;31071;51.478;5.710;2023-05-07T12:03:36;6.47;;;4.82;;
45338;SDS011;31071;51.478;5.710;2023-05-07T12:06:07;11.02;;;4.78;;
45338;SDS011;31071;51.478;5.710;2023-05-07T12:08:35;7.97;;;4.20;;
45338;SDS011;31071;51.478;5.710;2023-05-07T12:11:02;9.43;;;3.90;;
45338;SDS011;31071;51.478;5.710;2023-05-07T12:13:28;13.07;;;5.63;;
45338;SDS011;31071;51.478;5.710;2023-05-07T12:15:53;10.27;;;5.60;;
45338;SDS011;31071;51.478;5.710;2023-05-07T12:18:21;6.78;;;5.47;;
45338;SDS011;31071;51.478;5.710;2023-05-07T12:20:47;9.52;;;6.35;;
45338;SDS011;31071;51.478;5.710;2023-05-07T12:23:13;9.15;;;5.38;;
45338;SDS011;31071;51.478;5.710;2023-05-07T12:25:40;8.75;;;4.97;;
45338;SDS011;31071;51.478;5.710;2023-05-07T12:28:12;9.95;;;5.30;;
45338;SDS011;31071;51.478;5.710;2023-05-07T12:30:40;8.10;;;4.72;;
45338;SDS011;31071;51.478;5.710;2023-05-07T12:33:06;7.90;;;4.78;;
45338;SDS011;31071;51.478;5.710;2023-05-07T12:35:37;6.85;;;4.50;;
45338;SDS011;31071;51.478;5.710;2023-05-07T12:38:09;12.02;;;5.47;;
45338;SDS011;31071;51.478;5.710;2023-05-07T12:40:40;10.63;;;6.00;;
45338;SDS011;31071;51.478;5.710;2023-05-07T12:43:24;7.63;;;4.40;;
45338;SDS011;31071;51.478;5.710;2023-05-07T12:45:50;6.57;;;4.82;;
45338;SDS011;31071;51.478;5.710;2023-05-07T12:48:19;8.88;;;5.00;;
45338;SDS011;31071;51.478;5.710;2023-05-07T12:50:48;5.90;;;4.90;;
45338;SDS011;31071;51.478;5.710;2023-05-07T12:53:25;11.70;;;6.30;;
45338;SDS011;31071;51.478;5.710;2023-05-07T12:55:52;10.10;;;6.70;;
45338;SDS011;31071;51.478;5.710;2023-05-07T12:58:20;7.72;;;5.20;;
45338;SDS011;31071;51.478;5.710;2023-05-07T13:00:49;11.82;;;5.20;;
45338;SDS011;31071;51.478;5.710;2023-05-07T13:03:24;10.63;;;5.50;;
45338;SDS011;31071;51.478;5.710;2023-05-07T13:05:51;9.52;;;6.75;;
45338;SDS011;31071;51.478;5.710;2023-05-07T13:08:28;11.50;;;4.82;;
45338;SDS011;31071;51.478;5.710;2023-05-07T13:11:02;5.65;;;3.50;;
45338;SDS011;31071;51.478;5.710;2023-05-07T13:13:32;5.60;;;3.30;;
45338;SDS011;31071;51.478;5.710;2023-05-07T13:15:58;8.52;;;4.18;;
45338;SDS011;31071;51.478;5.710;2023-05-07T13:18:29;7.32;;;3.92;;
45338;SDS011;31071;51.478;5.710;2023-05-07T13:20:55;5.00;;;3.63;;
45338;SDS011;31071;51.478;5.710;2023-05-07T13:23:21;7.47;;;3.83;;
45338;SDS011;31071;51.478;5.710;2023-05-07T13:25:47;8.65;;;4.60;;
45338;SDS011;31071;51.478;5.710;2023-05-07T13:28:13;8.43;;;4.63;;
45338;SDS011;31071;51.478;5.710;2023-05-07T13:30:39;9.73;;;4.40;;
45338;SDS011;31071;51.478;5.710;2023-05-07T13:33:05;6.10;;;4.43;;
45338;SDS011;31071;51.478;5.710;2023-05-07T13:35:31;13.75;;;4.90;;
45338;SDS011;31071;51.478;5.710;2023-05-07T13:37:57;8.98;;;4.97;;
45338;SDS011;31071;51.478;5.710;2023-05-07T13:40:23;8.07;;;5.30;;
45338;SDS011;31071;51.478;5.710;2023-05-07T13:42:48;12.38;;;6.45;;
45338;SDS011;31071;51.478;5.710;2023-05-07T13:45:15;9.05;;;6.22;;
45338;SDS011;31071;51.478;5.710;2023-05-07T13:47:44;17.85;;;7.18;;
45338;SDS011;31071;51.478;5.710;2023-05-07T13:50:10;15.40;;;7.07;;
45338;SDS011;31071;51.478;5.710;2023-05-07T13:52:38;11.95;;;7.38;;
45338;SDS011;31071;51.478;5.710;2023-05-07T13:55:05;9.18;;;7.05;;
45338;SDS011;31071;51.478;5.710;2023-05-07T13:57:32;12.75;;;7.82;;
45338;SDS011;31071;51.478;5.710;2023-05-07T13:59:57;14.50;;;7.13;;
45338;SDS011;31071;51.478;5.710;2023-05-07T14:02:23;12.93;;;7.90;;
45338;SDS011;31071;51.478;5.710;2023-05-07T14:04:48;20.00;;;7.97;;
45338;SDS011;31071;51.478;5.710;2023-05-07T14:07:14;16.27;;;8.02;;
45338;SDS011;31071;51.478;5.710;2023-05-07T14:09:39;12.68;;;7.53;;
45338;SDS011;31071;51.478;5.710;2023-05-07T14:12:05;11.55;;;8.05;;
45338;SDS011;31071;51.478;5.710;2023-05-07T14:14:31;15.43;;;8.52;;
45338;SDS011;31071;51.478;5.710;2023-05-07T14:16:57;18.48;;;8.98;;
45338;SDS011;31071;51.478;5.710;2023-05-07T14:19:22;15.07;;;8.43;;
45338;SDS011;31071;51.478;5.710;2023-05-07T14:21:48;16.58;;;9.45;;
45338;SDS011;31071;51.478;5.710;2023-05-07T14:24:13;16.10;;;8.75;;
45338;SDS011;31071;51.478;5.710;2023-05-07T14:26:39;14.60;;;8.70;;
45338;SDS011;31071;51.478;5.710;2023-05-07T14:29:05;13.18;;;9.00;;
45338;SDS011;31071;51.478;5.710;2023-05-07T14:31:30;17.15;;;9.90;;
45338;SDS011;31071;51.478;5.710;2023-05-07T14:33:56;10.45;;;9.07;;